sensor_id;sensor_type;location;lat;lon;timestamp;P1;durP1;ratioP1;P2;durP2;ratioP2
69956;SDS011;57283;54.816;9.482;2023-03-14T00:01:43;15.70;;;2.70;;
69956;SDS011;57283;54.816;9.482;2023-03-14T00:04:11;11.52;;;2.83;;
69956;SDS011;57283;54.816;9.482;2023-03-14T00:06:39;12.68;;;2.97;;
69956;SDS011;57283;54.816;9.482;2023-03-14T00:09:08;10.38;;;2.10;;
69956;SDS011;57283;54.816;9.482;2023-03-14T00:11:38;14.23;;;1.70;;
69956;SDS011;57283;54.816;9.482;2023-03-14T00:19:26;15.15;;;2.50;;
69956;SDS011;57283;54.816;9.482;2023-03-14T00:21:52;17.08;;;2.45;;
69956;SDS011;57283;54.816;9.482;2023-03-14T00:24:19;13.88;;;2.33;;
69956;SDS011;57283;54.816;9.482;2023-03-14T00:26:45;12.97;;;1.87;;
69956;SDS011;57283;54.816;9.482;2023-03-14T00:29:11;11.95;;;2.00;;
69956;SDS011;57283;54.816;9.482;2023-03-14T00:31:37;12.70;;;2.58;;
69956;SDS011;57283;54.816;9.482;2023-03-14T00:34:05;9.32;;;2.30;;
69956;SDS011;57283;54.816;9.482;2023-03-14T00:40:09;12.77;;;2.50;;
69956;SDS011;57283;54.816;9.482;2023-03-14T00:42:36;15.32;;;2.30;;
69956;SDS011;57283;54.816;9.482;2023-03-14T00:45:04;13.30;;;2.97;;
69956;SDS011;57283;54.816;9.482;2023-03-14T00:47:31;11.52;;;2.10;;
69956;SDS011;57283;54.816;9.482;2023-03-14T00:49:59;16.90;;;3.07;;
69956;SDS011;57283;54.816;9.482;2023-03-14T00:52:27;12.95;;;2.88;;
69956;SDS011;57283;54.816;9.482;2023-03-14T00:54:55;11.25;;;2.22;;
69956;SDS011;57283;54.816;9.482;2023-03-14T00:57:24;16.30;;;2.45;;
69956;SDS011;57283;54.816;9.482;2023-03-14T00:59:51;16.00;;;2.78;;
69956;SDS011;57283;54.816;9.482;2023-03-14T01:02:19;11.53;;;2.03;;
69956;SDS011;57283;54.816;9.482;2023-03-14T01:04:47;10.60;;;1.73;;
69956;SDS011;57283;54.816;9.482;2023-03-14T01:07:15;11.63;;;2.15;;
69956;SDS011;57283;54.816;9.482;2023-03-14T01:09:43;12.90;;;2.13;;
69956;SDS011;57283;54.816;9.482;2023-03-14T01:12:11;9.93;;;2.65;;
69956;SDS011;57283;54.816;9.482;2023-03-14T01:17:11;13.95;;;2.58;;
69956;SDS011;57283;54.816;9.482;2023-03-14T01:19:39;11.43;;;2.10;;
69956;SDS011;57283;54.816;9.482;2023-03-14T01:22:07;12.57;;;2.50;;
69956;SDS011;57283;54.816;9.482;2023-03-14T01:24:36;11.60;;;2.20;;
69956;SDS011;57283;54.816;9.482;2023-03-14T01:27:04;8.93;;;1.73;;
69956;SDS011;57283;54.816;9.482;2023-03-14T01:29:31;15.45;;;1.95;;
69956;SDS011;57283;54.816;9.482;2023-03-14T01:31:59;16.65;;;2.90;;
69956;SDS011;57283;54.816;9.482;2023-03-14T01:34:28;12.93;;;2.30;;
69956;SDS011;57283;54.816;9.482;2023-03-14T01:36:56;10.30;;;2.83;;
69956;SDS011;57283;54.816;9.482;2023-03-14T01:39:23;10.30;;;2.37;;
69956;SDS011;57283;54.816;9.482;2023-03-14T01:41:51;13.55;;;2.00;;
69956;SDS011;57283;54.816;9.482;2023-03-14T01:44:19;8.90;;;2.13;;
69956;SDS011;57283;54.816;9.482;2023-03-14T01:46:47;10.32;;;2.47;;
69956;SDS011;57283;54.816;9.482;2023-03-14T01:49:17;12.68;;;2.67;;
69956;SDS011;57283;54.816;9.482;2023-03-14T01:51:48;14.47;;;2.20;;
69956;SDS011;57283;54.816;9.482;2023-03-14T01:54:18;16.00;;;2.20;;
69956;SDS011;57283;54.816;9.482;2023-03-14T01:56:48;12.50;;;2.25;;
69956;SDS011;57283;54.816;9.482;2023-03-14T01:59:17;8.93;;;1.92;;
69956;SDS011;57283;54.816;9.482;2023-03-14T02:01:46;10.80;;;2.28;;
69956;SDS011;57283;54.816;9.482;2023-03-14T02:04:14;11.30;;;1.97;;
69956;SDS011;57283;54.816;9.482;2023-03-14T02:06:49;14.50;;;2.33;;
69956;SDS011;57283;54.816;9.482;2023-03-14T02:09:17;11.43;;;2.63;;
69956;SDS011;57283;54.816;9.482;2023-03-14T02:11:44;9.68;;;1.98;;
69956;SDS011;57283;54.816;9.482;2023-03-14T02:14:15;13.95;;;2.47;;
69956;SDS011;57283;54.816;9.482;2023-03-14T02:16:44;11.87;;;2.60;;
69956;SDS011;57283;54.816;9.482;2023-03-14T02:19:12;8.60;;;1.80;;
69956;SDS011;57283;54.816;9.482;2023-03-14T02:21:44;11.65;;;1.77;;
69956;SDS011;57283;54.816;9.482;2023-03-14T02:24:17;13.73;;;2.50;;
69956;SDS011;57283;54.816;9.482;2023-03-14T02:29:47;16.93;;;2.47;;
69956;SDS011;57283;54.816;9.482;2023-03-14T02:32:16;15.02;;;3.10;;
69956;SDS011;57283;54.816;9.482;2023-03-14T02:34:45;10.13;;;1.92;;
69956;SDS011;57283;54.816;9.482;2023-03-14T02:37:15;10.80;;;1.83;;
69956;SDS011;57283;54.816;9.482;2023-03-14T02:39:44;11.15;;;2.38;;
69956;SDS011;57283;54.816;9.482;2023-03-14T02:42:14;8.13;;;2.03;;
69956;SDS011;57283;54.816;9.482;2023-03-14T02:44:53;10.68;;;1.83;;
69956;SDS011;57283;54.816;9.482;2023-03-14T02:47:22;11.95;;;2.78;;
69956;SDS011;57283;54.816;9.482;2023-03-14T02:49:55;9.07;;;1.65;;
69956;SDS011;57283;54.816;9.482;2023-03-14T02:52:24;13.98;;;2.50;;
69956;SDS011;57283;54.816;9.482;2023-03-14T02:54:51;8.87;;;1.33;;
69956;SDS011;57283;54.816;9.482;2023-03-14T02:57:19;8.77;;;2.10;;
69956;SDS011;57283;54.816;9.482;2023-03-14T02:59:47;11.18;;;2.10;;
69956;SDS011;57283;54.816;9.482;2023-03-14T03:02:16;8.27;;;1.88;;
69956;SDS011;57283;54.816;9.482;2023-03-14T03:04:43;10.02;;;2.55;;
69956;SDS011;57283;54.816;9.482;2023-03-14T03:07:11;7.57;;;1.47;;
69956;SDS011;57283;54.816;9.482;2023-03-14T03:09:39;10.90;;;1.88;;
69956;SDS011;57283;54.816;9.482;2023-03-14T03:12:06;8.88;;;1.98;;
69956;SDS011;57283;54.816;9.482;2023-03-14T03:14:34;12.02;;;1.92;;
69956;SDS011;57283;54.816;9.482;2023-03-14T03:17:03;14.68;;;1.90;;
69956;SDS011;57283;54.816;9.482;2023-03-14T03:19:32;15.73;;;2.27;;
69956;SDS011;57283;54.816;9.482;2023-03-14T03:22:00;7.20;;;1.90;;
69956;SDS011;57283;54.816;9.482;2023-03-14T03:24:28;11.15;;;2.15;;
69956;SDS011;57283;54.816;9.482;2023-03-14T03:26:56;12.20;;;2.58;;
69956;SDS011;57283;54.816;9.482;2023-03-14T03:29:23;9.73;;;2.17;;
69956;SDS011;57283;54.816;9.482;2023-03-14T03:31:51;12.63;;;2.67;;
69956;SDS011;57283;54.816;9.482;2023-03-14T03:34:19;8.45;;;1.98;;
69956;SDS011;57283;54.816;9.482;2023-03-14T03:36:48;9.88;;;1.98;;
69956;SDS011;57283;54.816;9.482;2023-03-14T03:39:16;8.73;;;2.15;;
69956;SDS011;57283;54.816;9.482;2023-03-14T03:41:43;9.95;;;2.05;;
69956;SDS011;57283;54.816;9.482;2023-03-14T03:44:11;12.27;;;2.50;;
69956;SDS011;57283;54.816;9.482;2023-03-14T03:46:40;10.20;;;2.00;;
69956;SDS011;57283;54.816;9.482;2023-03-14T03:49:07;10.90;;;2.63;;
69956;SDS011;57283;54.816;9.482;2023-03-14T03:51:35;11.10;;;2.53;;
69956;SDS011;57283;54.816;9.482;2023-03-14T03:54:04;9.88;;;2.33;;
69956;SDS011;57283;54.816;9.482;2023-03-14T03:56:32;9.87;;;2.60;;
69956;SDS011;57283;54.816;9.482;2023-03-14T03:58:59;11.27;;;2.15;;
69956;SDS011;57283;54.816;9.482;2023-03-14T04:01:27;8.45;;;1.73;;
69956;SDS011;57283;54.816;9.482;2023-03-14T04:03:55;12.48;;;3.30;;
69956;SDS011;57283;54.816;9.482;2023-03-14T04:06:23;9.95;;;2.40;;
69956;SDS011;57283;54.816;9.482;2023-03-14T04:08:50;13.67;;;2.53;;
69956;SDS011;57283;54.816;9.482;2023-03-14T04:11:19;7.78;;;1.50;;
69956;SDS011;57283;54.816;9.482;2023-03-14T04:13:47;12.38;;;2.33;;
69956;SDS011;57283;54.816;9.482;2023-03-14T04:16:16;13.85;;;2.05;;
69956;SDS011;57283;54.816;9.482;2023-03-14T04:18:44;10.73;;;2.50;;
69956;SDS011;57283;54.816;9.482;2023-03-14T04:21:12;9.80;;;2.57;;
69956;SDS011;57283;54.816;9.482;2023-03-14T04:23:40;9.48;;;1.92;;
69956;SDS011;57283;54.816;9.482;2023-03-14T04:26:07;8.63;;;1.95;;
69956;SDS011;57283;54.816;9.482;2023-03-14T04:28:36;8.50;;;2.00;;
69956;SDS011;57283;54.816;9.482;2023-03-14T04:31:08;9.30;;;2.33;;
69956;SDS011;57283;54.816;9.482;2023-03-14T04:33:36;8.23;;;1.90;;
69956;SDS011;57283;54.816;9.482;2023-03-14T04:36:04;9.35;;;2.10;;
69956;SDS011;57283;54.816;9.482;2023-03-14T04:38:32;5.85;;;1.73;;
69956;SDS011;57283;54.816;9.482;2023-03-14T04:41:00;7.63;;;2.08;;
69956;SDS011;57283;54.816;9.482;2023-03-14T04:43:28;10.23;;;2.45;;
69956;SDS011;57283;54.816;9.482;2023-03-14T04:45:57;6.77;;;1.90;;
69956;SDS011;57283;54.816;9.482;2023-03-14T04:48:25;10.25;;;2.30;;
69956;SDS011;57283;54.816;9.482;2023-03-14T04:50:53;9.32;;;2.58;;
69956;SDS011;57283;54.816;9.482;2023-03-14T04:53:21;7.05;;;2.08;;
69956;SDS011;57283;54.816;9.482;2023-03-14T04:55:49;6.88;;;2.45;;
69956;SDS011;57283;54.816;9.482;2023-03-14T04:58:17;6.70;;;1.70;;
69956;SDS011;57283;54.816;9.482;2023-03-14T05:00:45;8.40;;;2.15;;
69956;SDS011;57283;54.816;9.482;2023-03-14T05:03:15;6.07;;;2.25;;
69956;SDS011;57283;54.816;9.482;2023-03-14T05:05:44;6.55;;;1.75;;
69956;SDS011;57283;54.816;9.482;2023-03-14T05:08:11;8.95;;;1.73;;
69956;SDS011;57283;54.816;9.482;2023-03-14T05:10:39;8.20;;;2.30;;
69956;SDS011;57283;54.816;9.482;2023-03-14T05:13:07;7.95;;;2.38;;
69956;SDS011;57283;54.816;9.482;2023-03-14T05:15:34;7.15;;;2.22;;
69956;SDS011;57283;54.816;9.482;2023-03-14T05:18:02;7.05;;;2.35;;
69956;SDS011;57283;54.816;9.482;2023-03-14T05:20:32;8.60;;;1.70;;
69956;SDS011;57283;54.816;9.482;2023-03-14T05:22:59;6.57;;;2.37;;
69956;SDS011;57283;54.816;9.482;2023-03-14T05:25:27;12.43;;;2.40;;
69956;SDS011;57283;54.816;9.482;2023-03-14T05:27:57;7.50;;;1.75;;
69956;SDS011;57283;54.816;9.482;2023-03-14T05:30:25;8.13;;;2.60;;
69956;SDS011;57283;54.816;9.482;2023-03-14T05:32:54;7.78;;;2.80;;
69956;SDS011;57283;54.816;9.482;2023-03-14T05:35:21;7.50;;;1.80;;
69956;SDS011;57283;54.816;9.482;2023-03-14T05:37:50;9.30;;;2.55;;
69956;SDS011;57283;54.816;9.482;2023-03-14T05:40:18;10.23;;;2.97;;
69956;SDS011;57283;54.816;9.482;2023-03-14T05:42:46;9.50;;;2.35;;
69956;SDS011;57283;54.816;9.482;2023-03-14T05:45:13;5.72;;;1.98;;
69956;SDS011;57283;54.816;9.482;2023-03-14T05:47:41;6.47;;;2.17;;
69956;SDS011;57283;54.816;9.482;2023-03-14T05:50:09;8.40;;;2.05;;
69956;SDS011;57283;54.816;9.482;2023-03-14T05:52:37;6.90;;;2.17;;
69956;SDS011;57283;54.816;9.482;2023-03-14T05:55:06;7.72;;;2.22;;
69956;SDS011;57283;54.816;9.482;2023-03-14T05:57:34;9.88;;;2.58;;
69956;SDS011;57283;54.816;9.482;2023-03-14T06:00:02;10.73;;;2.60;;
69956;SDS011;57283;54.816;9.482;2023-03-14T06:02:30;10.18;;;2.85;;
69956;SDS011;57283;54.816;9.482;2023-03-14T06:04:58;9.75;;;2.30;;
69956;SDS011;57283;54.816;9.482;2023-03-14T06:07:25;7.95;;;2.35;;
69956;SDS011;57283;54.816;9.482;2023-03-14T06:09:53;8.73;;;2.53;;
69956;SDS011;57283;54.816;9.482;2023-03-14T06:12:22;11.07;;;3.40;;
69956;SDS011;57283;54.816;9.482;2023-03-14T06:14:49;8.05;;;2.40;;
69956;SDS011;57283;54.816;9.482;2023-03-14T06:17:17;6.97;;;2.55;;
69956;SDS011;57283;54.816;9.482;2023-03-14T06:19:45;10.55;;;2.38;;
69956;SDS011;57283;54.816;9.482;2023-03-14T06:22:12;10.02;;;3.20;;
69956;SDS011;57283;54.816;9.482;2023-03-14T06:24:40;11.07;;;3.40;;
69956;SDS011;57283;54.816;9.482;2023-03-14T06:27:08;10.02;;;2.90;;
69956;SDS011;57283;54.816;9.482;2023-03-14T06:29:37;9.77;;;2.50;;
69956;SDS011;57283;54.816;9.482;2023-03-14T06:32:05;7.10;;;2.58;;
69956;SDS011;57283;54.816;9.482;2023-03-14T06:34:32;5.45;;;1.92;;
69956;SDS011;57283;54.816;9.482;2023-03-14T06:37:00;7.73;;;2.13;;
69956;SDS011;57283;54.816;9.482;2023-03-14T06:39:28;8.07;;;2.80;;
69956;SDS011;57283;54.816;9.482;2023-03-14T06:41:56;6.38;;;2.00;;
69956;SDS011;57283;54.816;9.482;2023-03-14T06:44:23;9.15;;;2.08;;
69956;SDS011;57283;54.816;9.482;2023-03-14T06:46:52;7.53;;;1.90;;
69956;SDS011;57283;54.816;9.482;2023-03-14T06:49:20;5.33;;;1.57;;
69956;SDS011;57283;54.816;9.482;2023-03-14T06:51:48;6.30;;;1.83;;
69956;SDS011;57283;54.816;9.482;2023-03-14T06:54:15;5.25;;;1.70;;
69956;SDS011;57283;54.816;9.482;2023-03-14T06:56:43;4.43;;;1.35;;
69956;SDS011;57283;54.816;9.482;2023-03-14T06:59:11;4.05;;;1.42;;
69956;SDS011;57283;54.816;9.482;2023-03-14T07:01:38;5.10;;;1.13;;
69956;SDS011;57283;54.816;9.482;2023-03-14T07:04:08;4.10;;;1.50;;
69956;SDS011;57283;54.816;9.482;2023-03-14T07:06:35;6.05;;;1.20;;
69956;SDS011;57283;54.816;9.482;2023-03-14T07:09:03;2.97;;;0.70;;
69956;SDS011;57283;54.816;9.482;2023-03-14T07:11:31;2.80;;;0.75;;
69956;SDS011;57283;54.816;9.482;2023-03-14T07:13:59;2.13;;;0.63;;
69956;SDS011;57283;54.816;9.482;2023-03-14T07:16:26;3.58;;;0.82;;
69956;SDS011;57283;54.816;9.482;2023-03-14T07:18:57;3.70;;;0.73;;
69956;SDS011;57283;54.816;9.482;2023-03-14T07:21:26;2.58;;;0.60;;
69956;SDS011;57283;54.816;9.482;2023-03-14T07:23:54;3.05;;;0.70;;
69956;SDS011;57283;54.816;9.482;2023-03-14T07:26:22;2.17;;;0.63;;
69956;SDS011;57283;54.816;9.482;2023-03-14T07:28:50;3.53;;;0.70;;
69956;SDS011;57283;54.816;9.482;2023-03-14T07:31:17;2.75;;;0.90;;
69956;SDS011;57283;54.816;9.482;2023-03-14T07:33:45;2.63;;;0.70;;
69956;SDS011;57283;54.816;9.482;2023-03-14T07:36:13;2.35;;;0.50;;
69956;SDS011;57283;54.816;9.482;2023-03-14T07:38:42;2.63;;;0.50;;
69956;SDS011;57283;54.816;9.482;2023-03-14T07:41:10;3.33;;;0.63;;
69956;SDS011;57283;54.816;9.482;2023-03-14T07:43:37;2.50;;;0.60;;
69956;SDS011;57283;54.816;9.482;2023-03-14T07:46:05;2.80;;;0.50;;
69956;SDS011;57283;54.816;9.482;2023-03-14T07:48:33;2.67;;;0.52;;
69956;SDS011;57283;54.816;9.482;2023-03-14T07:51:01;2.97;;;0.70;;
69956;SDS011;57283;54.816;9.482;2023-03-14T07:53:28;2.63;;;0.75;;
69956;SDS011;57283;54.816;9.482;2023-03-14T07:55:57;2.60;;;0.80;;
69956;SDS011;57283;54.816;9.482;2023-03-14T07:58:25;2.53;;;0.70;;
69956;SDS011;57283;54.816;9.482;2023-03-14T08:00:53;2.10;;;0.50;;
69956;SDS011;57283;54.816;9.482;2023-03-14T08:03:20;5.53;;;0.60;;
69956;SDS011;57283;54.816;9.482;2023-03-14T08:05:48;3.45;;;0.70;;
69956;SDS011;57283;54.816;9.482;2023-03-14T08:08:16;3.08;;;0.80;;
69956;SDS011;57283;54.816;9.482;2023-03-14T08:10:44;4.85;;;0.73;;
69956;SDS011;57283;54.816;9.482;2023-03-14T08:13:14;2.60;;;0.60;;
69956;SDS011;57283;54.816;9.482;2023-03-14T08:15:41;3.47;;;0.70;;
69956;SDS011;57283;54.816;9.482;2023-03-14T08:18:09;2.45;;;0.68;;
69956;SDS011;57283;54.816;9.482;2023-03-14T08:20:37;2.72;;;0.55;;
69956;SDS011;57283;54.816;9.482;2023-03-14T08:23:04;2.50;;;0.60;;
69956;SDS011;57283;54.816;9.482;2023-03-14T08:25:32;2.22;;;0.60;;
69956;SDS011;57283;54.816;9.482;2023-03-14T08:28:00;1.77;;;0.50;;
69956;SDS011;57283;54.816;9.482;2023-03-14T08:30:29;2.58;;;0.60;;
69956;SDS011;57283;54.816;9.482;2023-03-14T08:32:57;1.70;;;0.40;;
69956;SDS011;57283;54.816;9.482;2023-03-14T08:35:25;2.53;;;0.57;;
69956;SDS011;57283;54.816;9.482;2023-03-14T08:37:53;1.88;;;0.50;;
69956;SDS011;57283;54.816;9.482;2023-03-14T08:40:21;2.20;;;0.57;;
69956;SDS011;57283;54.816;9.482;2023-03-14T08:42:48;2.58;;;0.57;;
69956;SDS011;57283;54.816;9.482;2023-03-14T08:45:16;2.58;;;0.80;;
69956;SDS011;57283;54.816;9.482;2023-03-14T08:47:45;2.75;;;0.65;;
69956;SDS011;57283;54.816;9.482;2023-03-14T08:50:13;2.88;;;0.40;;
69956;SDS011;57283;54.816;9.482;2023-03-14T08:52:42;3.60;;;0.60;;
69956;SDS011;57283;54.816;9.482;2023-03-14T08:55:09;2.22;;;0.68;;
69956;SDS011;57283;54.816;9.482;2023-03-14T08:57:37;3.75;;;0.70;;
69956;SDS011;57283;54.816;9.482;2023-03-14T09:00:05;2.72;;;0.60;;
69956;SDS011;57283;54.816;9.482;2023-03-14T09:02:36;2.65;;;0.60;;
69956;SDS011;57283;54.816;9.482;2023-03-14T09:05:06;2.70;;;0.73;;
69956;SDS011;57283;54.816;9.482;2023-03-14T09:07:34;2.67;;;0.73;;
69956;SDS011;57283;54.816;9.482;2023-03-14T09:10:02;2.22;;;0.65;;
69956;SDS011;57283;54.816;9.482;2023-03-14T09:12:30;3.00;;;0.73;;
69956;SDS011;57283;54.816;9.482;2023-03-14T09:14:57;4.07;;;0.82;;
69956;SDS011;57283;54.816;9.482;2023-03-14T09:17:25;3.17;;;0.67;;
69956;SDS011;57283;54.816;9.482;2023-03-14T09:19:52;2.95;;;0.68;;
69956;SDS011;57283;54.816;9.482;2023-03-14T09:22:22;2.63;;;0.70;;
69956;SDS011;57283;54.816;9.482;2023-03-14T09:24:50;3.47;;;0.63;;
69956;SDS011;57283;54.816;9.482;2023-03-14T09:27:17;3.67;;;0.90;;
69956;SDS011;57283;54.816;9.482;2023-03-14T09:29:45;2.73;;;0.63;;
69956;SDS011;57283;54.816;9.482;2023-03-14T09:32:13;3.08;;;0.85;;
69956;SDS011;57283;54.816;9.482;2023-03-14T09:34:40;3.60;;;0.70;;
69956;SDS011;57283;54.816;9.482;2023-03-14T09:37:08;4.57;;;1.83;;
69956;SDS011;57283;54.816;9.482;2023-03-14T09:39:37;7.90;;;1.10;;
69956;SDS011;57283;54.816;9.482;2023-03-14T09:42:06;4.77;;;0.73;;
69956;SDS011;57283;54.816;9.482;2023-03-14T09:44:36;5.22;;;1.15;;
69956;SDS011;57283;54.816;9.482;2023-03-14T09:47:05;3.38;;;0.80;;
69956;SDS011;57283;54.816;9.482;2023-03-14T09:49:34;2.65;;;0.60;;
69956;SDS011;57283;54.816;9.482;2023-03-14T09:52:05;5.43;;;0.82;;
69956;SDS011;57283;54.816;9.482;2023-03-14T09:54:34;2.53;;;0.60;;
69956;SDS011;57283;54.816;9.482;2023-03-14T09:57:05;4.45;;;1.00;;
69956;SDS011;57283;54.816;9.482;2023-03-14T09:59:33;2.70;;;0.68;;
69956;SDS011;57283;54.816;9.482;2023-03-14T10:02:10;3.00;;;1.00;;
69956;SDS011;57283;54.816;9.482;2023-03-14T10:04:38;5.22;;;1.15;;
69956;SDS011;57283;54.816;9.482;2023-03-14T10:07:11;3.07;;;0.73;;
69956;SDS011;57283;54.816;9.482;2023-03-14T10:09:42;6.43;;;1.23;;
69956;SDS011;57283;54.816;9.482;2023-03-14T10:12:12;5.85;;;1.30;;
69956;SDS011;57283;54.816;9.482;2023-03-14T10:14:45;4.53;;;1.00;;
69956;SDS011;57283;54.816;9.482;2023-03-14T10:17:13;3.25;;;0.90;;
69956;SDS011;57283;54.816;9.482;2023-03-14T10:19:52;5.23;;;1.33;;
69956;SDS011;57283;54.816;9.482;2023-03-14T10:22:20;4.68;;;1.42;;
69956;SDS011;57283;54.816;9.482;2023-03-14T10:24:51;6.53;;;1.38;;
69956;SDS011;57283;54.816;9.482;2023-03-14T10:27:21;3.78;;;1.25;;
69956;SDS011;57283;54.816;9.482;2023-03-14T10:29:53;3.95;;;1.40;;
69956;SDS011;57283;54.816;9.482;2023-03-14T10:32:29;5.60;;;1.37;;
69956;SDS011;57283;54.816;9.482;2023-03-14T10:35:07;4.50;;;1.48;;
69956;SDS011;57283;54.816;9.482;2023-03-14T10:37:36;6.28;;;1.30;;
69956;SDS011;57283;54.816;9.482;2023-03-14T10:40:15;5.32;;;1.40;;
69956;SDS011;57283;54.816;9.482;2023-03-14T10:42:44;5.50;;;1.10;;
69956;SDS011;57283;54.816;9.482;2023-03-14T10:45:22;6.80;;;1.10;;
69956;SDS011;57283;54.816;9.482;2023-03-14T10:47:52;6.32;;;1.20;;
69956;SDS011;57283;54.816;9.482;2023-03-14T10:50:24;7.43;;;1.52;;
69956;SDS011;57283;54.816;9.482;2023-03-14T10:52:52;10.18;;;1.50;;
69956;SDS011;57283;54.816;9.482;2023-03-14T10:55:28;8.45;;;1.42;;
69956;SDS011;57283;54.816;9.482;2023-03-14T10:57:57;5.03;;;1.20;;
69956;SDS011;57283;54.816;9.482;2023-03-14T11:00:25;6.70;;;1.30;;
69956;SDS011;57283;54.816;9.482;2023-03-14T11:02:59;6.10;;;1.25;;
69956;SDS011;57283;54.816;9.482;2023-03-14T11:05:32;4.75;;;1.20;;
69956;SDS011;57283;54.816;9.482;2023-03-14T11:08:02;6.28;;;1.13;;
69956;SDS011;57283;54.816;9.482;2023-03-14T11:10:35;6.33;;;1.37;;
69956;SDS011;57283;54.816;9.482;2023-03-14T11:13:08;4.20;;;1.35;;
69956;SDS011;57283;54.816;9.482;2023-03-14T11:15:40;7.55;;;1.60;;
69956;SDS011;57283;54.816;9.482;2023-03-14T11:18:19;5.22;;;1.45;;
69956;SDS011;57283;54.816;9.482;2023-03-14T11:20:51;6.18;;;1.48;;
69956;SDS011;57283;54.816;9.482;2023-03-14T11:23:20;5.27;;;1.30;;
69956;SDS011;57283;54.816;9.482;2023-03-14T11:25:51;4.22;;;1.13;;
69956;SDS011;57283;54.816;9.482;2023-03-14T11:28:23;5.28;;;1.42;;
69956;SDS011;57283;54.816;9.482;2023-03-14T11:30:53;5.00;;;1.30;;
69956;SDS011;57283;54.816;9.482;2023-03-14T11:33:22;5.00;;;1.73;;
69956;SDS011;57283;54.816;9.482;2023-03-14T11:35:53;6.07;;;1.40;;
69956;SDS011;57283;54.816;9.482;2023-03-14T11:38:29;3.58;;;1.40;;
69956;SDS011;57283;54.816;9.482;2023-03-14T11:40:58;5.55;;;1.50;;
69956;SDS011;57283;54.816;9.482;2023-03-14T11:43:28;6.43;;;1.50;;
69956;SDS011;57283;54.816;9.482;2023-03-14T11:45:58;5.55;;;1.45;;
69956;SDS011;57283;54.816;9.482;2023-03-14T11:48:30;9.13;;;1.23;;
69956;SDS011;57283;54.816;9.482;2023-03-14T11:51:01;5.25;;;1.60;;
69956;SDS011;57283;54.816;9.482;2023-03-14T11:53:36;5.50;;;1.60;;
69956;SDS011;57283;54.816;9.482;2023-03-14T11:56:09;6.47;;;1.55;;
69956;SDS011;57283;54.816;9.482;2023-03-14T11:58:39;4.88;;;1.30;;
69956;SDS011;57283;54.816;9.482;2023-03-14T12:01:11;6.47;;;1.53;;
69956;SDS011;57283;54.816;9.482;2023-03-14T12:03:41;4.82;;;1.30;;
69956;SDS011;57283;54.816;9.482;2023-03-14T12:06:13;8.02;;;1.75;;
69956;SDS011;57283;54.816;9.482;2023-03-14T12:08:46;6.90;;;1.40;;
69956;SDS011;57283;54.816;9.482;2023-03-14T12:11:17;5.82;;;1.42;;
69956;SDS011;57283;54.816;9.482;2023-03-14T12:13:47;6.20;;;1.53;;
69956;SDS011;57283;54.816;9.482;2023-03-14T12:16:25;5.07;;;1.30;;
69956;SDS011;57283;54.816;9.482;2023-03-14T12:18:53;6.45;;;1.63;;
69956;SDS011;57283;54.816;9.482;2023-03-14T12:21:21;4.13;;;1.40;;
69956;SDS011;57283;54.816;9.482;2023-03-14T12:23:51;8.07;;;2.30;;
69956;SDS011;57283;54.816;9.482;2023-03-14T12:26:20;4.53;;;1.60;;
69956;SDS011;57283;54.816;9.482;2023-03-14T12:28:50;5.63;;;1.73;;
69956;SDS011;57283;54.816;9.482;2023-03-14T12:31:37;3.92;;;1.30;;
69956;SDS011;57283;54.816;9.482;2023-03-14T12:36:51;5.97;;;2.53;;
69956;SDS011;57283;54.816;9.482;2023-03-14T12:39:21;7.20;;;1.60;;
69956;SDS011;57283;54.816;9.482;2023-03-14T12:42:01;4.90;;;1.50;;
69956;SDS011;57283;54.816;9.482;2023-03-14T12:44:45;5.35;;;2.08;;
69956;SDS011;57283;54.816;9.482;2023-03-14T12:50:12;7.07;;;2.30;;
69956;SDS011;57283;54.816;9.482;2023-03-14T12:52:42;6.20;;;2.07;;
69956;SDS011;57283;54.816;9.482;2023-03-14T12:55:15;6.10;;;2.63;;
69956;SDS011;57283;54.816;9.482;2023-03-14T12:57:47;5.40;;;1.90;;
69956;SDS011;57283;54.816;9.482;2023-03-14T13:00:19;5.57;;;1.50;;
69956;SDS011;57283;54.816;9.482;2023-03-14T13:02:47;4.57;;;1.63;;
69956;SDS011;57283;54.816;9.482;2023-03-14T13:05:16;6.93;;;1.50;;
69956;SDS011;57283;54.816;9.482;2023-03-14T13:08:02;6.80;;;2.42;;
69956;SDS011;57283;54.816;9.482;2023-03-14T13:10:30;4.97;;;1.70;;
69956;SDS011;57283;54.816;9.482;2023-03-14T13:13:12;6.13;;;1.30;;
69956;SDS011;57283;54.816;9.482;2023-03-14T13:15:43;8.80;;;1.63;;
69956;SDS011;57283;54.816;9.482;2023-03-14T13:18:12;6.20;;;1.43;;
69956;SDS011;57283;54.816;9.482;2023-03-14T13:20:42;6.30;;;1.60;;
69956;SDS011;57283;54.816;9.482;2023-03-14T13:23:21;4.45;;;1.42;;
69956;SDS011;57283;54.816;9.482;2023-03-14T13:25:49;5.95;;;1.58;;
69956;SDS011;57283;54.816;9.482;2023-03-14T13:28:16;6.65;;;1.88;;
69956;SDS011;57283;54.816;9.482;2023-03-14T13:30:46;4.60;;;1.73;;
69956;SDS011;57283;54.816;9.482;2023-03-14T13:33:14;6.60;;;1.92;;
69956;SDS011;57283;54.816;9.482;2023-03-14T13:35:43;4.55;;;1.55;;
69956;SDS011;57283;54.816;9.482;2023-03-14T13:38:18;5.07;;;1.45;;
69956;SDS011;57283;54.816;9.482;2023-03-14T13:40:48;4.63;;;1.15;;
69956;SDS011;57283;54.816;9.482;2023-03-14T13:43:18;6.50;;;1.30;;
69956;SDS011;57283;54.816;9.482;2023-03-14T13:45:49;6.20;;;1.30;;
69956;SDS011;57283;54.816;9.482;2023-03-14T13:48:17;6.20;;;1.40;;
69956;SDS011;57283;54.816;9.482;2023-03-14T13:50:50;4.93;;;1.38;;
69956;SDS011;57283;54.816;9.482;2023-03-14T13:53:18;5.22;;;1.55;;
69956;SDS011;57283;54.816;9.482;2023-03-14T13:55:46;4.63;;;1.10;;
69956;SDS011;57283;54.816;9.482;2023-03-14T13:58:20;4.78;;;1.20;;
69956;SDS011;57283;54.816;9.482;2023-03-14T14:00:57;6.95;;;1.60;;
69956;SDS011;57283;54.816;9.482;2023-03-14T14:03:26;5.35;;;1.40;;
69956;SDS011;57283;54.816;9.482;2023-03-14T14:05:54;6.57;;;1.40;;
69956;SDS011;57283;54.816;9.482;2023-03-14T14:08:22;6.23;;;1.40;;
69956;SDS011;57283;54.816;9.482;2023-03-14T14:10:50;5.20;;;1.33;;
69956;SDS011;57283;54.816;9.482;2023-03-14T14:13:21;7.72;;;1.70;;
69956;SDS011;57283;54.816;9.482;2023-03-14T14:15:50;5.13;;;1.38;;
69956;SDS011;57283;54.816;9.482;2023-03-14T14:18:21;5.95;;;1.50;;
69956;SDS011;57283;54.816;9.482;2023-03-14T14:20:51;8.73;;;1.70;;
69956;SDS011;57283;54.816;9.482;2023-03-14T14:23:19;5.35;;;1.27;;
69956;SDS011;57283;54.816;9.482;2023-03-14T14:25:51;3.83;;;1.27;;
69956;SDS011;57283;54.816;9.482;2023-03-14T14:28:23;5.38;;;1.42;;
69956;SDS011;57283;54.816;9.482;2023-03-14T14:30:59;4.53;;;1.38;;
69956;SDS011;57283;54.816;9.482;2023-03-14T14:33:28;6.87;;;1.37;;
69956;SDS011;57283;54.816;9.482;2023-03-14T14:35:56;8.05;;;1.50;;
69956;SDS011;57283;54.816;9.482;2023-03-14T14:38:24;5.97;;;1.20;;
69956;SDS011;57283;54.816;9.482;2023-03-14T14:40:53;6.85;;;1.30;;
69956;SDS011;57283;54.816;9.482;2023-03-14T14:43:22;4.82;;;1.42;;
69956;SDS011;57283;54.816;9.482;2023-03-14T14:45:51;6.20;;;1.13;;
69956;SDS011;57283;54.816;9.482;2023-03-14T14:48:20;7.97;;;1.85;;
69956;SDS011;57283;54.816;9.482;2023-03-14T14:50:53;5.70;;;1.40;;
69956;SDS011;57283;54.816;9.482;2023-03-14T14:53:23;6.10;;;1.45;;
69956;SDS011;57283;54.816;9.482;2023-03-14T14:55:52;5.38;;;1.45;;
69956;SDS011;57283;54.816;9.482;2023-03-14T14:58:22;4.80;;;1.33;;
69956;SDS011;57283;54.816;9.482;2023-03-14T15:00:51;3.80;;;1.42;;
69956;SDS011;57283;54.816;9.482;2023-03-14T15:03:20;6.68;;;1.80;;
69956;SDS011;57283;54.816;9.482;2023-03-14T15:05:48;7.05;;;1.63;;
69956;SDS011;57283;54.816;9.482;2023-03-14T15:08:17;5.47;;;0.90;;
69956;SDS011;57283;54.816;9.482;2023-03-14T15:10:44;4.07;;;0.90;;
69956;SDS011;57283;54.816;9.482;2023-03-14T15:13:12;4.43;;;1.00;;
69956;SDS011;57283;54.816;9.482;2023-03-14T15:15:40;4.80;;;1.40;;
69956;SDS011;57283;54.816;9.482;2023-03-14T15:18:13;8.88;;;1.27;;